Time;durP1;ratioP1;P1;durP2;ratioP2;P2;SDS_P1;SDS_P2;PMS_P1;PMS_P2;Temp;Humidity;BMP_temperature;BMP_pressure;BME280_temperature;BME280_humidity;BME280_pressure;Samples;Min_cycle;Max_cycle;Signal;HPM_P1;HPM_P2
2022/09/08 00:00:50;;;;;;;;;;;25.50;48.50;;;;;;1598315;73;1156;-65
2022/09/08 00:02:52;;;;;;;;;;;25.50;48.50;;;;;;1606512;73;739;-66
2022/09/08 00:04:54;;;;;;;;;;;25.50;48.60;;;;;;1597585;73;625;-65
2022/09/08 00:06:55;;;;;;;;;;;25.50;48.50;;;;;;1605356;73;710;-65
2022/09/08 00:08:58;;;;;;;;;;;25.50;48.40;;;;;;1605159;73;1934;-65
2022/09/08 00:11:02;;;;;;;;;;;25.50;48.40;;;;;;1610116;73;1156;-65
2022/09/08 00:13:06;;;;;;;;;;;25.50;48.40;;;;;;1605423;73;700;-64
2022/09/08 00:15:08;;;;;;;;;;;25.50;48.30;;;;;;1607829;73;2031;-65
2022/09/08 00:17:10;;;;;;;;;;;25.50;48.30;;;;;;1605874;73;692;-66
2022/09/08 00:19:11;;;;;;;;;;;25.50;48.40;;;;;;1605678;73;777;-65
2022/09/08 00:21:13;;;;;;;;;;;25.50;48.30;;;;;;1603079;73;1156;-65
2022/09/08 00:23:15;;;;;;;;;;;25.50;48.40;;;;;;1603661;73;1598;-66
2022/09/08 00:25:17;;;;;;;;;;;25.50;48.30;;;;;;1606855;73;680;-65
2022/09/08 00:27:19;;;;;;;;;;;25.50;48.30;;;;;;1607463;73;803;-64
2022/09/08 00:29:21;;;;;;;;;;;25.60;48.20;;;;;;1607361;73;1936;-66
2022/09/08 00:31:23;;;;;;;;;;;25.60;48.30;;;;;;1605108;71;1162;-64
2022/09/08 00:33:24;;;;;;;;;;;25.60;48.10;;;;;;1605063;73;741;-65
2022/09/08 00:35:26;;;;;;;;;;;25.50;48.10;;;;;;1605942;73;730;-65
2022/09/08 00:37:32;;;;;;;;;;;25.50;48.10;;;;;;1605844;73;1557;-65
2022/09/08 00:39:32;;;;;;;;;;;25.50;48.10;;;;;;1608404;73;1648;-65
2022/09/08 00:41:34;;;;;;;;;;;25.50;48.10;;;;;;1603921;73;1126;-65
2022/09/08 00:43:36;;;;;;;;;;;25.50;48.10;;;;;;1600226;73;806;-65
2022/09/08 00:45:40;;;;;;;;;;;25.50;48.10;;;;;;1600717;73;795;-65
2022/09/08 00:47:47;;;;;;;;;;;25.50;48.10;;;;;;1604358;73;1970;-65
2022/09/08 00:49:50;;;;;;;;;;;25.50;48.10;;;;;;1603822;73;1914;-66
2022/09/08 00:51:53;;;;;;;;;;;25.50;48.00;;;;;;1605576;73;1643;-65
2022/09/08 00:53:55;;;;;;;;;;;25.50;48.00;;;;;;1612570;73;729;-65
2022/09/08 00:55:57;;;;;;;;;;;25.50;48.00;;;;;;1605149;73;767;-66
2022/09/08 00:57:59;;;;;;;;;;;25.50;48.00;;;;;;1605499;73;701;-65
2022/09/08 01:00:01;;;;;;;;;;;25.50;48.00;;;;;;1605592;73;767;-65
2022/09/08 01:02:04;;;;;;;;;;;25.50;48.10;;;;;;1598207;73;1150;-64
2022/09/08 01:04:06;;;;;;;;;;;25.50;48.00;;;;;;1604983;73;1554;-65
2022/09/08 01:06:19;;;;;;;;;;;25.50;48.00;;;;;;1609153;73;1568;-65
2022/09/08 01:13:16;;;;;;;;;;;25.50;48.00;;;;;;1599246;73;1715;-65
2022/09/08 01:15:25;;;;;;;;;;;25.40;48.10;;;;;;1606244;73;648;-65
2022/09/08 01:17:28;;;;;;;;;;;25.50;48.00;;;;;;1604496;73;761;-65
2022/09/08 01:19:30;;;;;;;;;;;25.40;48.00;;;;;;1604335;73;1569;-65
2022/09/08 01:21:38;;;;;;;;;;;25.40;48.10;;;;;;1605716;73;1170;-65
2022/09/08 01:23:41;;;;;;;;;;;25.40;48.10;;;;;;1606802;73;1972;-65
2022/09/08 01:25:57;;;;;;;;;;;25.40;47.90;;;;;;1604096;73;681;-65
2022/09/08 01:28:09;;;;;;;;;;;25.40;48.00;;;;;;1569354;73;1068;-65
2022/09/08 01:30:11;;;;;;;;;;;25.50;47.90;;;;;;1599163;73;2154;-65
2022/09/08 01:32:13;;;;;;;;;;;25.50;48.00;;;;;;1605059;73;1144;-65
2022/09/08 01:34:15;;;;;;;;;;;25.50;47.90;;;;;;1605543;73;1594;-64
2022/09/08 01:36:18;;;;;;;;;;;25.40;47.90;;;;;;1603575;73;764;-65
2022/09/08 01:38:20;;;;;;;;;;;25.40;47.90;;;;;;1605161;73;702;-65
2022/09/08 01:40:22;;;;;;;;;;;25.40;47.90;;;;;;1606059;73;1076;-65
2022/09/08 01:42:24;;;;;;;;;;;25.50;47.90;;;;;;1602429;73;1084;-65
2022/09/08 01:44:27;;;;;;;;;;;25.50;47.90;;;;;;1605629;73;736;-66
2022/09/08 01:46:30;;;;;;;;;;;25.50;47.90;;;;;;1600817;73;711;-65
2022/09/08 01:48:32;;;;;;;;;;;25.40;47.90;;;;;;1606460;73;1599;-66
2022/09/08 01:50:34;;;;;;;;;;;25.40;47.90;;;;;;1598713;73;1914;-66
2022/09/08 01:52:36;;;;;;;;;;;25.40;48.00;;;;;;1607301;73;795;-65
2022/09/08 01:54:38;;;;;;;;;;;25.50;48.00;;;;;;1605807;73;715;-66
2022/09/08 01:56:40;;;;;;;;;;;25.50;48.00;;;;;;1607093;73;749;-65
2022/09/08 01:58:42;;;;;;;;;;;25.50;48.00;;;;;;1605921;73;816;-66
2022/09/08 02:00:44;;;;;;;;;;;25.50;48.00;;;;;;1605309;73;1147;-65
2022/09/08 02:02:46;;;;;;;;;;;25.50;47.90;;;;;;1595290;73;1564;-65
2022/09/08 02:04:48;;;;;;;;;;;25.50;48.00;;;;;;1596920;73;700;-65
2022/09/08 02:06:51;;;;;;;;;;;25.50;48.00;;;;;;1605643;73;744;-66
2022/09/08 02:08:53;;;;;;;;;;;25.50;47.90;;;;;;1604997;73;737;-65
2022/09/08 02:10:55;;;;;;;;;;;25.40;47.90;;;;;;1600550;73;1938;-66
2022/09/08 02:12:57;;;;;;;;;;;25.50;47.90;;;;;;1608635;73;726;-66
2022/09/08 02:14:59;;;;;;;;;;;25.40;47.90;;;;;;1605010;73;791;-65
2022/09/08 02:17:01;;;;;;;;;;;25.50;47.80;;;;;;1600312;73;1589;-65
2022/09/08 02:19:03;;;;;;;;;;;25.50;47.80;;;;;;1601560;73;745;-65
2022/09/08 02:21:09;;;;;;;;;;;25.40;47.80;;;;;;1609550;73;1165;-66
2022/09/08 02:23:11;;;;;;;;;;;25.50;47.80;;;;;;1605244;73;743;-65
2022/09/08 02:25:13;;;;;;;;;;;25.50;47.70;;;;;;1604705;73;758;-65
2022/09/08 02:27:15;;;;;;;;;;;25.50;47.70;;;;;;1602450;73;781;-65
2022/09/08 02:29:17;;;;;;;;;;;25.50;47.60;;;;;;1604314;73;1913;-65
2022/09/08 02:31:19;;;;;;;;;;;25.40;47.70;;;;;;1602019;73;1504;-66
2022/09/08 02:33:21;;;;;;;;;;;25.40;47.60;;;;;;1607409;73;662;-65
2022/09/08 02:35:23;;;;;;;;;;;25.50;47.60;;;;;;1608718;73;837;-65
2022/09/08 02:37:25;;;;;;;;;;;25.50;47.60;;;;;;1605377;73;718;-65
2022/09/08 02:39:28;;;;;;;;;;;25.50;47.60;;;;;;1605385;73;730;-65
2022/09/08 02:41:30;;;;;;;;;;;25.50;47.50;;;;;;1603029;73;1136;-66
2022/09/08 02:43:32;;;;;;;;;;;25.50;47.50;;;;;;1605795;73;761;-65
2022/09/08 02:45:36;;;;;;;;;;;25.50;47.50;;;;;;1603825;73;734;-66
2022/09/08 02:47:38;;;;;;;;;;;25.50;47.40;;;;;;1602872;73;1975;-65
2022/09/08 02:49:40;;;;;;;;;;;25.50;47.40;;;;;;1605085;73;1940;-65
2022/09/08 02:51:41;;;;;;;;;;;25.50;47.40;;;;;;1605610;73;1129;-66
2022/09/08 02:53:43;;;;;;;;;;;25.40;47.40;;;;;;1605856;73;770;-66
2022/09/08 02:55:45;;;;;;;;;;;25.50;47.40;;;;;;1605717;73;679;-65
2022/09/08 02:57:47;;;;;;;;;;;25.50;47.30;;;;;;1608922;73;1546;-66
2022/09/08 02:59:49;;;;;;;;;;;25.50;47.30;;;;;;1606640;73;657;-66
2022/09/08 03:01:51;;;;;;;;;;;25.50;47.30;;;;;;1604883;73;1170;-65
2022/09/08 03:03:53;;;;;;;;;;;25.50;47.30;;;;;;1607726;73;677;-66
2022/09/08 03:05:54;;;;;;;;;;;25.40;47.30;;;;;;1600190;73;686;-65
2022/09/08 03:07:58;;;;;;;;;;;25.50;47.40;;;;;;1606186;73;643;-65
2022/09/08 03:09:59;;;;;;;;;;;25.50;47.30;;;;;;1604704;73;1936;-66
2022/09/08 03:12:01;;;;;;;;;;;25.50;47.50;;;;;;1601838;73;1624;-65
2022/09/08 03:14:03;;;;;;;;;;;25.50;47.50;;;;;;1577309;73;643;-65
2022/09/08 03:16:06;;;;;;;;;;;25.50;47.50;;;;;;1602747;73;673;-65
2022/09/08 03:18:07;;;;;;;;;;;25.50;47.50;;;;;;1603870;73;675;-66
2022/09/08 03:20:10;;;;;;;;;;;25.50;47.50;;;;;;1600782;73;756;-66
2022/09/08 03:22:11;;;;;;;;;;;25.50;47.40;;;;;;1609018;73;1135;-65
2022/09/08 03:24:13;;;;;;;;;;;25.50;47.60;;;;;;1606433;73;762;-66
2022/09/08 03:26:16;;;;;;;;;;;25.50;47.60;;;;;;1605050;73;1529;-66
2022/09/08 03:28:20;;;;;;;;;;;25.50;47.60;;;;;;1606073;73;725;-66
2022/09/08 03:30:22;;;;;;;;;;;25.50;47.60;;;;;;1604179;73;1924;-66
2022/09/08 03:32:24;;;;;;;;;;;25.50;47.60;;;;;;1609448;71;1100;-66
2022/09/08 03:34:26;;;;;;;;;;;25.50;47.60;;;;;;1607039;73;715;-64
2022/09/08 03:36:28;;;;;;;;;;;25.50;47.60;;;;;;1605520;73;714;-66
2022/09/08 03:38:30;;;;;;;;;;;25.50;47.60;;;;;;1606134;73;770;-66
2022/09/08 03:40:32;;;;;;;;;;;25.50;47.60;;;;;;1600297;73;1545;-65
2022/09/08 03:42:34;;;;;;;;;;;25.50;47.60;;;;;;1598601;73;769;-66
2022/09/08 03:44:36;;;;;;;;;;;25.50;47.60;;;;;;1605229;73;727;-66
2022/09/08 03:46:38;;;;;;;;;;;25.50;47.60;;;;;;1605093;73;844;-67
2022/09/08 03:48:40;;;;;;;;;;;25.50;47.60;;;;;;1604975;73;742;-66
2022/09/08 03:50:42;;;;;;;;;;;25.50;47.60;;;;;;1607575;73;1932;-65
2022/09/08 03:52:44;;;;;;;;;;;25.50;47.70;;;;;;1606123;73;742;-65
2022/09/08 03:54:50;;;;;;;;;;;25.50;47.70;;;;;;1601410;73;1449;-64
2022/09/08 03:56:52;;;;;;;;;;;25.50;47.70;;;;;;1603354;73;722;-65
2022/09/08 03:58:54;;;;;;;;;;;25.50;47.70;;;;;;1602456;73;662;-66
2022/09/08 04:00:56;;;;;;;;;;;25.50;47.70;;;;;;1604937;73;1172;-66
2022/09/08 04:02:58;;;;;;;;;;;25.50;47.70;;;;;;1602546;73;727;-66
2022/09/08 04:04:59;;;;;;;;;;;25.50;47.80;;;;;;1604218;73;738;-66
2022/09/08 04:07:01;;;;;;;;;;;25.70;47.80;;;;;;1606164;73;745;-66
2022/09/08 04:09:03;;;;;;;;;;;25.50;47.80;;;;;;1602659;73;1550;-67
2022/09/08 04:11:05;;;;;;;;;;;25.50;47.80;;;;;;1607517;73;1941;-66
2022/09/08 04:13:07;;;;;;;;;;;25.50;47.80;;;;;;1605657;73;738;-66
2022/09/08 04:15:09;;;;;;;;;;;25.50;47.80;;;;;;1608798;73;721;-66
2022/09/08 04:17:11;;;;;;;;;;;25.50;47.80;;;;;;1605357;73;629;-66
2022/09/08 04:19:13;;;;;;;;;;;25.50;47.70;;;;;;1605990;73;680;-66
2022/09/08 04:21:15;;;;;;;;;;;25.50;47.70;;;;;;1604504;73;1162;-66
2022/09/08 04:23:17;;;;;;;;;;;25.50;47.70;;;;;;1604955;73;1403;-66
2022/09/08 04:25:19;;;;;;;;;;;25.50;47.70;;;;;;1599915;73;744;-66
2022/09/08 04:27:21;;;;;;;;;;;25.50;47.70;;;;;;1605311;73;716;-65
2022/09/08 04:29:23;;;;;;;;;;;25.50;47.70;;;;;;1608639;73;687;-65
2022/09/08 04:31:25;;;;;;;;;;;25.50;47.70;;;;;;1606367;71;1932;-66
2022/09/08 04:33:27;;;;;;;;;;;25.50;47.70;;;;;;1601042;73;754;-66
2022/09/08 04:35:29;;;;;;;;;;;25.50;47.70;;;;;;1605310;73;719;-66
2022/09/08 04:37:30;;;;;;;;;;;25.50;47.70;;;;;;1600619;73;1329;-66
2022/09/08 04:39:32;;;;;;;;;;;25.50;47.70;;;;;;1605460;73;753;-66
2022/09/08 04:41:34;;;;;;;;;;;25.50;47.70;;;;;;1603750;73;1146;-67
2022/09/08 04:43:36;;;;;;;;;;;25.50;47.60;;;;;;1608219;73;754;-66
2022/09/08 04:45:38;;;;;;;;;;;25.50;47.60;;;;;;1605831;73;707;-66
2022/09/08 04:47:40;;;;;;;;;;;25.50;47.60;;;;;;1606015;73;691;-66
2022/09/08 04:49:42;;;;;;;;;;;25.50;47.60;;;;;;1605232;73;699;-67
2022/09/08 04:51:44;;;;;;;;;;;25.50;47.70;;;;;;1601322;72;3118;-64
2022/09/08 04:53:45;;;;;;;;;;;25.50;47.70;;;;;;1559361;74;601;-68
2022/09/08 04:55:47;;;;;;;;;;;25.60;47.70;;;;;;1560531;75;695;-66
2022/09/08 04:57:49;;;;;;;;;;;25.50;47.60;;;;;;1571019;75;712;-66
2022/09/08 04:59:51;;;;;;;;;;;25.50;47.60;;;;;;1567353;75;709;-65
2022/09/08 05:01:53;;;;;;;;;;;25.50;47.60;;;;;;1561523;74;1233;-65
2022/09/08 05:03:56;;;;;;;;;;;25.50;47.60;;;;;;1569630;75;657;-64
2022/09/08 05:05:59;;;;;;;;;;;25.40;47.60;;;;;;1558141;74;1699;-65
2022/09/08 05:08:01;;;;;;;;;;;25.50;47.60;;;;;;1559006;74;1957;-65
2022/09/08 05:10:04;;;;;;;;;;;25.40;47.60;;;;;;1556392;74;1944;-65
2022/09/08 05:12:06;;;;;;;;;;;25.50;47.60;;;;;;1563296;74;1159;-65
2022/09/08 05:14:08;;;;;;;;;;;25.50;47.50;;;;;;1562119;75;714;-65
2022/09/08 05:16:14;;;;;;;;;;;25.50;47.50;;;;;;1567663;75;712;-65
2022/09/08 05:18:16;;;;;;;;;;;25.40;47.50;;;;;;1554722;74;1598;-65
2022/09/08 05:20:18;;;;;;;;;;;25.40;47.50;;;;;;1562023;74;813;-64
2022/09/08 05:22:20;;;;;;;;;;;25.50;47.40;;;;;;1552764;74;1160;-64
2022/09/08 05:24:22;;;;;;;;;;;25.30;47.40;;;;;;1561952;74;771;-65
2022/09/08 05:26:24;;;;;;;;;;;25.50;47.40;;;;;;1560699;75;679;-65
2022/09/08 05:28:26;;;;;;;;;;;25.40;47.30;;;;;;1554113;74;765;-65
2022/09/08 05:30:28;;;;;;;;;;;25.40;47.30;;;;;;1563530;75;1939;-64
2022/09/08 05:32:30;;;;;;;;;;;25.40;47.30;;;;;;1568763;75;1606;-65
2022/09/08 05:34:32;;;;;;;;;;;25.40;47.30;;;;;;1570127;74;690;-65
2022/09/08 05:36:34;;;;;;;;;;;25.40;47.30;;;;;;1561488;74;749;-65
2022/09/08 05:38:36;;;;;;;;;;;25.30;47.30;;;;;;1563603;74;646;-65
2022/09/08 05:40:38;;;;;;;;;;;25.30;47.30;;;;;;1560611;75;738;-64
2022/09/08 05:42:40;;;;;;;;;;;25.40;47.30;;;;;;1561410;74;1125;-67
2022/09/08 05:44:42;;;;;;;;;;;25.40;47.40;;;;;;1558857;74;760;-70
2022/09/08 05:46:44;;;;;;;;;;;25.40;47.40;;;;;;1559036;74;1481;-65
2022/09/08 05:48:46;;;;;;;;;;;25.40;47.40;;;;;;1561799;74;709;-62
2022/09/08 05:50:48;;;;;;;;;;;25.40;47.50;;;;;;1571520;75;1926;-66
2022/09/08 05:52:50;;;;;;;;;;;25.40;47.50;;;;;;1568974;75;1098;-65
2022/09/08 05:54:52;;;;;;;;;;;25.40;47.50;;;;;;1573681;74;739;-65
2022/09/08 05:56:53;;;;;;;;;;;25.40;47.50;;;;;;1566341;75;735;-66
2022/09/08 05:58:57;;;;;;;;;;;25.40;47.40;;;;;;1560129;75;711;-67
2022/09/08 06:01:01;;;;;;;;;;;25.40;47.40;;;;;;1555510;74;1621;-65
2022/09/08 06:03:03;;;;;;;;;;;25.30;47.40;;;;;;1555949;74;1805;-68
2022/09/08 06:05:05;;;;;;;;;;;25.40;47.40;;;;;;1563453;75;726;-66
2022/09/08 06:07:07;;;;;;;;;;;25.40;47.50;;;;;;1561461;74;784;-65
2022/09/08 06:09:09;;;;;;;;;;;25.40;47.40;;;;;;1557534;75;745;-66
2022/09/08 06:11:11;;;;;;;;;;;25.40;47.40;;;;;;1558397;74;1915;-66
2022/09/08 06:13:12;;;;;;;;;;;25.40;47.40;;;;;;1555773;75;803;-66
2022/09/08 06:15:14;;;;;;;;;;;25.40;47.40;;;;;;1559832;74;1561;-66
2022/09/08 06:17:17;;;;;;;;;;;25.40;47.50;;;;;;1552162;74;785;-68
2022/09/08 06:19:19;;;;;;;;;;;25.40;47.40;;;;;;1555985;74;562;-66
2022/09/08 06:21:24;;;;;;;;;;;25.40;47.50;;;;;;1551457;74;1113;-65
2022/09/08 06:23:27;;;;;;;;;;;25.40;47.50;;;;;;1557414;74;747;-66
2022/09/08 06:25:29;;;;;;;;;;;25.40;47.50;;;;;;1559071;74;685;-65
2022/09/08 06:27:39;;;;;;;;;;;25.40;47.50;;;;;;1562565;74;648;-65
2022/09/08 06:29:48;;;;;;;;;;;25.40;47.50;;;;;;1566983;74;1547;-65
2022/09/08 06:32:04;;;;;;;;;;;25.40;47.50;;;;;;1560966;75;2062;-63
2022/09/08 06:34:07;;;;;;;;;;;25.40;47.60;;;;;;1507566;75;1146;-67
2022/09/08 06:36:11;;;;;;;;;;;25.40;47.60;;;;;;1557058;75;1907;-65
2022/09/08 06:38:14;;;;;;;;;;;25.40;47.50;;;;;;1557060;74;1811;-64
2022/09/08 06:40:17;;;;;;;;;;;25.40;47.60;;;;;;1559059;74;1793;-65
2022/09/08 06:42:20;;;;;;;;;;;25.40;47.50;;;;;;1569713;74;1085;-64
2022/09/08 06:44:22;;;;;;;;;;;25.40;47.60;;;;;;1554677;75;1697;-66
2022/09/08 06:46:26;;;;;;;;;;;25.30;47.60;;;;;;1553137;74;757;-65
2022/09/08 06:48:31;;;;;;;;;;;25.50;47.60;;;;;;1562415;74;662;-66
2022/09/08 06:50:33;;;;;;;;;;;25.50;47.50;;;;;;1558011;74;633;-66
2022/09/08 06:52:48;;;;;;;;;;;25.40;47.50;;;;;;1560630;74;1929;-65
2022/09/08 06:54:54;;;;;;;;;;;25.40;47.50;;;;;;1561392;74;804;-64
2022/09/08 06:57:04;;;;;;;;;;;25.40;47.50;;;;;;1563204;74;1874;-64
2022/09/08 06:59:10;;;;;;;;;;;25.30;47.50;;;;;;1578597;74;746;-65
2022/09/08 07:01:22;;;;;;;;;;;25.30;47.40;;;;;;1560134;75;1514;-65
2022/09/08 07:03:38;;;;;;;;;;;25.30;47.50;;;;;;1565095;75;711;-65
2022/09/08 07:05:58;;;;;;;;;;;25.30;47.50;;;;;;1565434;75;2012;-67
2022/09/08 07:08:07;;;;;;;;;;;25.30;47.50;;;;;;1560835;74;704;-65
2022/09/08 07:10:29;;;;;;;;;;;25.30;47.50;;;;;;1560447;75;1971;-65
2022/09/08 07:12:32;;;;;;;;;;;25.30;47.60;;;;;;1560796;74;1923;-66
2022/09/08 07:14:36;;;;;;;;;;;25.20;47.50;;;;;;1566814;74;1656;-66
2022/09/08 07:16:55;;;;;;;;;;;25.10;47.60;;;;;;1560830;74;1497;-66
2022/09/08 07:18:58;;;;;;;;;;;25.20;47.60;;;;;;1501381;77;1215;-67
2022/09/08 07:21:10;;;;;;;;;;;25.20;47.60;;;;;;1523880;74;1834;-66
2022/09/08 07:23:22;;;;;;;;;;;25.20;47.60;;;;;;1561285;74;1915;-66
2022/09/08 07:25:30;;;;;;;;;;;25.20;47.60;;;;;;1562376;74;1584;-65
2022/09/08 07:27:32;;;;;;;;;;;25.20;47.70;;;;;;1555499;74;788;-66
2022/09/08 07:29:35;;;;;;;;;;;25.20;47.70;;;;;;1558525;75;799;-67
2022/09/08 07:31:38;;;;;;;;;;;25.20;47.70;;;;;;1559006;74;1939;-66
2022/09/08 07:33:41;;;;;;;;;;;25.10;47.70;;;;;;1566938;74;756;-66
2022/09/08 07:35:59;;;;;;;;;;;25.10;47.70;;;;;;1556752;75;587;-67
2022/09/08 07:38:03;;;;;;;;;;;25.20;47.70;;;;;;1548565;74;769;-66
2022/09/08 07:40:25;;;;;;;;;;;25.20;47.70;;;;;;1555256;74;1601;-66
2022/09/08 07:42:27;;;;;;;;;;;25.10;47.70;;;;;;1561481;74;1333;-65
2022/09/08 07:44:29;;;;;;;;;;;25.10;47.70;;;;;;1556209;74;706;-65
2022/09/08 07:46:32;;;;;;;;;;;25.20;47.70;;;;;;1564030;75;727;-65
2022/09/08 07:48:36;;;;;;;;;;;25.10;47.70;;;;;;1558333;75;1937;-64
2022/09/08 07:50:55;;;;;;;;;;;25.10;47.70;;;;;;1515494;76;1235;-64
2022/09/08 07:53:08;;;;;;;;;;;25.10;47.70;;;;;;1564924;74;1889;-65
2022/09/08 07:55:14;;;;;;;;;;;25.10;47.80;;;;;;1564383;75;1809;-66
2022/09/08 07:57:24;;;;;;;;;;;25.20;47.80;;;;;;1562446;74;702;-67
2022/09/08 07:59:30;;;;;;;;;;;25.10;47.80;;;;;;1561712;75;691;-65
2022/09/08 08:01:33;;;;;;;;;;;25.30;47.70;;;;;;1567041;75;1133;-66
2022/09/08 08:03:40;;;;;;;;;;;25.30;47.80;;;;;;1564312;74;2093;-65
2022/09/08 08:05:50;;;;;;;;;;;25.20;47.80;;;;;;1565749;74;562;-66
2022/09/08 08:07:56;;;;;;;;;;;25.20;47.80;;;;;;1561726;74;1817;-66
2022/09/08 08:10:02;;;;;;;;;;;25.10;47.80;;;;;;1557364;74;1913;-65
2022/09/08 08:12:25;;;;;;;;;;;25.30;47.80;;;;;;1569640;74;1959;-64
2022/09/08 08:14:31;;;;;;;;;;;25.30;47.70;;;;;;1554635;75;766;-64
2022/09/08 08:16:41;;;;;;;;;;;25.30;47.50;;;;;;1554201;74;630;-65
2022/09/08 08:19:00;;;;;;;;;;;25.30;47.50;;;;;;1526505;75;1020;-65
2022/09/08 08:21:03;;;;;;;;;;;25.20;47.50;;;;;;1566174;74;1161;-65
2022/09/08 08:23:19;;;;;;;;;;;25.20;47.60;;;;;;1557401;74;716;-63
2022/09/08 08:25:25;;;;;;;;;;;25.10;47.40;;;;;;1565700;74;705;-66
2022/09/08 08:27:32;;;;;;;;;;;25.10;47.40;;;;;;1555182;75;728;-64
2022/09/08 08:29:35;;;;;;;;;;;25.10;47.30;;;;;;1549055;74;1644;-65
2022/09/08 08:31:55;;;;;;;;;;;25.00;47.30;;;;;;1559791;74;1927;-64
2022/09/08 08:33:59;;;;;;;;;;;25.00;47.40;;;;;;1570145;75;706;-65
2022/09/08 08:36:02;;;;;;;;;;;25.00;47.20;;;;;;1567802;75;2033;-64
2022/09/08 08:38:05;;;;;;;;;;;25.00;47.30;;;;;;1572347;74;1719;-65
2022/09/08 08:40:11;;;;;;;;;;;24.90;47.30;;;;;;1564949;75;719;-67
2022/09/08 08:42:29;;;;;;;;;;;25.00;47.50;;;;;;1513283;75;1315;-63
2022/09/08 08:44:37;;;;;;;;;;;24.90;47.70;;;;;;1559290;74;1616;-63
2022/09/08 08:46:41;;;;;;;;;;;24.80;47.60;;;;;;1560582;75;1454;-66
2022/09/08 08:48:47;;;;;;;;;;;24.80;47.70;;;;;;1568940;74;1960;-66
2022/09/08 08:50:51;;;;;;;;;;;24.80;47.80;;;;;;1570470;74;1587;-67
2022/09/08 08:53:03;;;;;;;;;;;24.80;47.80;;;;;;1573573;74;1951;-66
2022/09/08 08:55:10;;;;;;;;;;;24.80;47.90;;;;;;1570425;74;1885;-67
2022/09/08 08:57:25;;;;;;;;;;;24.80;48.00;;;;;;1566705;74;1815;-66
2022/09/08 08:59:31;;;;;;;;;;;24.80;48.00;;;;;;1572606;75;798;-66
2022/09/08 09:01:35;;;;;;;;;;;24.80;47.90;;;;;;1568491;74;1156;-67
2022/09/08 09:03:55;;;;;;;;;;;24.80;47.90;;;;;;1570118;75;1910;-67
2022/09/08 09:05:58;;;;;;;;;;;24.80;47.80;;;;;;1568508;74;717;-67
2022/09/08 09:08:20;;;;;;;;;;;24.80;47.80;;;;;;1562038;75;715;-67
2022/09/08 09:10:33;;;;;;;;;;;24.80;47.90;;;;;;1565842;75;738;-67
2022/09/08 09:12:36;;;;;;;;;;;24.80;47.80;;;;;;1562687;74;1970;-67
2022/09/08 09:14:40;;;;;;;;;;;24.80;47.80;;;;;;1562099;74;949;-67
2022/09/08 09:16:52;;;;;;;;;;;24.80;47.80;;;;;;1571862;74;1897;-66
2022/09/08 09:19:12;;;;;;;;;;;24.80;47.80;;;;;;1558164;74;2152;-66
2022/09/08 09:21:16;;;;;;;;;;;24.80;47.80;;;;;;1564727;74;1126;-64
2022/09/08 09:23:29;;;;;;;;;;;24.90;47.90;;;;;;1566388;75;703;-64
2022/09/08 09:25:31;;;;;;;;;;;24.80;47.80;;;;;;1567978;74;728;-64
2022/09/08 09:27:35;;;;;;;;;;;24.80;47.80;;;;;;1565746;75;699;-64
2022/09/08 09:29:37;;;;;;;;;;;24.80;47.80;;;;;;1562580;74;1822;-65
2022/09/08 09:31:46;;;;;;;;;;;24.80;47.80;;;;;;1561224;74;1951;-65
2022/09/08 09:34:08;;;;;;;;;;;24.90;47.90;;;;;;1561917;74;1804;-63
2022/09/08 09:36:27;;;;;;;;;;;24.90;47.90;;;;;;1562800;74;816;-64
2022/09/08 09:38:42;;;;;;;;;;;24.90;47.70;;;;;;1561246;75;620;-64
2022/09/08 09:41:01;;;;;;;;;;;24.90;47.60;;;;;;1565453;75;719;-64
2022/09/08 09:43:21;;;;;;;;;;;24.90;47.40;;;;;;1556919;75;1560;-63
2022/09/08 09:45:28;;;;;;;;;;;25.00;47.30;;;;;;1560041;74;776;-64
2022/09/08 09:47:48;;;;;;;;;;;24.90;47.10;;;;;;1560458;74;1826;-64
2022/09/08 09:50:08;;;;;;;;;;;24.90;46.80;;;;;;1563756;75;702;-63
2022/09/08 09:52:11;;;;;;;;;;;24.80;46.90;;;;;;1565426;74;1949;-64
2022/09/08 09:54:20;;;;;;;;;;;24.90;46.70;;;;;;1567118;74;2077;-63
2022/09/08 09:56:24;;;;;;;;;;;24.80;46.70;;;;;;1566500;75;687;-64
2022/09/08 09:58:47;;;;;;;;;;;24.80;46.90;;;;;;1569100;75;676;-63
2022/09/08 10:01:09;;;;;;;;;;;24.80;46.90;;;;;;1563347;74;1631;-63
2022/09/08 10:03:19;;;;;;;;;;;24.80;46.70;;;;;;1557182;74;756;-64
2022/09/08 10:05:32;;;;;;;;;;;24.70;46.80;;;;;;1564791;75;715;-62
2022/09/08 10:07:35;;;;;;;;;;;24.70;46.80;;;;;;1564749;75;2355;-63
2022/09/08 10:09:55;;;;;;;;;;;24.60;46.90;;;;;;1569113;74;650;-63
2022/09/08 10:12:16;;;;;;;;;;;24.70;46.90;;;;;;1561692;74;1945;-63
2022/09/08 10:14:25;;;;;;;;;;;24.70;46.80;;;;;;1559088;74;1584;-64
2022/09/08 10:16:31;;;;;;;;;;;24.60;46.80;;;;;;1563703;74;1875;-63
2022/09/08 10:18:41;;;;;;;;;;;24.70;46.90;;;;;;1567676;74;753;-63
2022/09/08 10:20:44;;;;;;;;;;;24.70;46.90;;;;;;1565715;75;663;-63
2022/09/08 10:22:51;;;;;;;;;;;24.60;46.80;;;;;;1566053;74;1111;-63
2022/09/08 10:25:07;;;;;;;;;;;24.60;46.90;;;;;;1562303;74;703;-64
2022/09/08 10:27:22;;;;;;;;;;;24.70;46.60;;;;;;1564469;74;1002;-64
2022/09/08 10:29:44;;;;;;;;;;;24.60;46.80;;;;;;1564696;74;1573;-64
2022/09/08 10:31:53;;;;;;;;;;;24.70;46.80;;;;;;1566830;74;1943;-64
2022/09/08 10:34:06;;;;;;;;;;;24.60;46.50;;;;;;1562401;74;830;-64
2022/09/08 10:36:08;;;;;;;;;;;24.70;46.70;;;;;;1561910;74;1940;-64
2022/09/08 10:38:20;;;;;;;;;;;24.60;46.40;;;;;;1563627;74;679;-63
2022/09/08 10:40:36;;;;;;;;;;;24.50;46.20;;;;;;1561560;74;695;-63
2022/09/08 10:42:39;;;;;;;;;;;24.50;46.70;;;;;;1563334;74;1545;-64
2022/09/08 10:44:51;;;;;;;;;;;24.50;46.80;;;;;;1563722;74;1404;-63
2022/09/08 10:46:57;;;;;;;;;;;24.50;46.70;;;;;;1569604;74;675;-64
2022/09/08 10:49:04;;;;;;;;;;;24.50;46.60;;;;;;1564296;74;1254;-63
2022/09/08 10:51:10;;;;;;;;;;;24.60;46.60;;;;;;1543307;75;1706;-63
2022/09/08 10:53:33;;;;;;;;;;;24.60;46.50;;;;;;1563137;73;2065;-67
2022/09/08 10:55:47;;;;;;;;;;;24.60;46.50;;;;;;1595802;73;1556;-66
2022/09/08 10:58:06;;;;;;;;;;;24.60;46.50;;;;;;1596677;73;672;-66
2022/09/08 11:00:09;;;;;;;;;;;24.60;46.40;;;;;;1594507;73;613;-66
2022/09/08 11:02:19;;;;;;;;;;;24.60;46.40;;;;;;1598726;73;1162;-67
2022/09/08 11:04:39;;;;;;;;;;;24.60;46.40;;;;;;1590027;73;700;-67
2022/09/08 11:06:48;;;;;;;;;;;24.60;46.30;;;;;;1597722;73;688;-67
2022/09/08 11:09:05;;;;;;;;;;;24.60;46.20;;;;;;1594173;73;1489;-67
2022/09/08 11:11:23;;;;;;;;;;;24.60;46.20;;;;;;1595818;73;1392;-68
2022/09/08 11:13:37;;;;;;;;;;;24.60;46.30;;;;;;1592447;73;1970;-66
2022/09/08 11:15:43;;;;;;;;;;;24.50;46.30;;;;;;1547613;74;1065;-66
2022/09/08 11:17:47;;;;;;;;;;;24.60;46.30;;;;;;1587831;73;2090;-66
2022/09/08 11:19:59;;;;;;;;;;;24.60;46.20;;;;;;1587659;74;747;-66
2022/09/08 11:22:02;;;;;;;;;;;24.70;46.30;;;;;;1597686;73;1876;-71
2022/09/08 11:24:12;;;;;;;;;;;24.60;46.20;;;;;;1590790;73;1576;-66
2022/09/08 11:26:19;;;;;;;;;;;24.60;46.40;;;;;;1588876;73;837;-67
2022/09/08 11:28:39;;;;;;;;;;;24.60;46.40;;;;;;1579156;73;2004;-66
2022/09/08 11:30:46;;;;;;;;;;;24.70;46.60;;;;;;1588370;73;719;-67
2022/09/08 11:32:49;;;;;;;;;;;24.70;46.50;;;;;;1591573;73;1964;-66
2022/09/08 11:34:53;;;;;;;;;;;24.60;46.40;;;;;;1589974;73;721;-66
2022/09/08 11:36:59;;;;;;;;;;;24.60;46.20;;;;;;1587357;73;707;-66
2022/09/08 11:39:21;;;;;;;;;;;24.70;46.30;;;;;;1589854;73;1602;-66
2022/09/08 11:41:24;;;;;;;;;;;24.60;46.30;;;;;;1586335;73;755;-67
2022/09/08 11:43:37;;;;;;;;;;;24.60;46.30;;;;;;1560082;74;1287;-66
2022/09/08 11:45:57;;;;;;;;;;;24.70;46.20;;;;;;1590624;73;1796;-66
2022/09/08 11:48:03;;;;;;;;;;;24.70;45.90;;;;;;1583118;73;747;-67
2022/09/08 11:50:16;;;;;;;;;;;24.70;45.70;;;;;;1587768;73;1794;-66
2022/09/08 11:52:36;;;;;;;;;;;24.60;45.50;;;;;;1594625;73;1942;-66
2022/09/08 11:54:42;;;;;;;;;;;24.70;45.60;;;;;;1588393;73;682;-66
2022/09/08 11:56:52;;;;;;;;;;;24.70;45.50;;;;;;1594224;73;1930;-66
2022/09/08 11:59:14;;;;;;;;;;;24.70;45.40;;;;;;1590818;73;1949;-68
2022/09/08 12:01:18;;;;;;;;;;;24.70;45.50;;;;;;1595301;73;789;-68
2022/09/08 12:03:39;;;;;;;;;;;24.80;45.60;;;;;;1591270;73;1139;-67
2022/09/08 12:05:55;;;;;;;;;;;24.80;45.50;;;;;;1589369;73;2029;-69
2022/09/08 12:08:15;;;;;;;;;;;24.80;45.20;;;;;;1598081;73;1762;-66
2022/09/08 12:10:25;;;;;;;;;;;24.80;45.20;;;;;;1598788;74;746;-67
2022/09/08 12:12:41;;;;;;;;;;;24.80;44.80;;;;;;1596273;73;2223;-68
2022/09/08 12:14:50;;;;;;;;;;;24.80;45.10;;;;;;1592520;73;726;-67
2022/09/08 12:16:59;;;;;;;;;;;24.80;44.90;;;;;;1598132;73;1137;-67
2022/09/08 12:19:06;;;;;;;;;;;24.80;45.10;;;;;;1590412;73;2113;-68
2022/09/08 12:21:10;;;;;;;;;;;24.80;45.20;;;;;;1586091;73;2115;-68
2022/09/08 12:23:19;;;;;;;;;;;24.80;45.00;;;;;;1583172;73;1124;-68
2022/09/08 12:25:25;;;;;;;;;;;24.80;44.90;;;;;;1585795;73;689;-67
2022/09/08 12:27:30;;;;;;;;;;;24.80;45.00;;;;;;1593219;73;722;-68
2022/09/08 12:29:40;;;;;;;;;;;24.80;44.90;;;;;;1599830;73;1109;-70
2022/09/08 12:32:00;;;;;;;;;;;24.80;45.00;;;;;;1591947;73;1885;-67
2022/09/08 12:34:04;;;;;;;;;;;24.80;44.80;;;;;;1586474;73;1910;-67